Minocqua, WI

1:48 AM CDT on August 30, 2014 (GMT -0500)
WIDOT Woodruff - STH 47 @ CTH J | Change Station
CLOSE
Current Station
Personal Weather Station
Location: Minocqua, WI
Elevation: 1621 ft
Nearby Weather Stations

Elev 1621 ft 45.89 °N, 89.68 °W | Updated 45 minutes ago

Light Rain
Light Rain
65 °F
Feels Like 65 °F
N
3
Wind Variable Wind from SSE
Gusts 7.0 mph

Today
High -- | Low -- °F
--% Chance of Precip.
Yesterday
High -- | Low -- °F
Precip. -- in
6:17 AM 7:40 PM
Waxing Crescent, 19% visible
Pressure 29.81 in
Visibility 7.0 miles
Clouds Overcast 700 ft
Dew Point 64 °F
Humidity 99%
Rainfall -999.00 in
Snow Depth Not available.
UV 0 out of 12
Pollen .40 out of 12
Air Quality Not available.
Flu Activity Not available.
METAR KARV 300635Z AUTO 00000KT 7SM -RA OVC007 18/17 A2981 RMK AO2 LTG DSNT SE T01800171

More Conditions Fewer Conditions

Pressure 29.81 in
Visibility 7.0 miles
Clouds Overcast 700 ft
Dew Point 64 °F
Humidity 99%
Rainfall -999.00 in
Snow Depth Not available.
UV 0 out of 12
Pollen .40 out of 12
Air Quality Not available.
Flu Activity Not available.
METAR KARV 300635Z AUTO 00000KT 7SM -RA OVC007 18/17 A2981 RMK AO2 LTG DSNT SE T01800171

More Conditions Fewer Conditions

10-Day Weather Forecast

Almanac

Astronomy

Aug. 30, 2014 Rise Set
Actual Time 6:17 AM CDT 7:40 PM CDT
Civil Twilight 5:46 AM CDT 8:11 PM CDT
Nautical Twilight 5:08 AM CDT 8:49 PM CDT
Astronomical Twilight 4:28 AM CDT 9:28 PM CDT
Moon 11:22 AM CDT 9:57 PM CDT
Length of Visible Light 14h 25m
Length of Day
13h 23m
Tomorrow will be 3m 5s shorter.
Waxing Crescent, 19% of the Moon is Illuminated
Today
Waxing Crescent
Sep 2
First Quarter
Sep 8
Full
Sep 15
Last Quarter
Sep 24
New

Today's Extremes

State Highs State Lows

Community

WunderPhotos

Upload Photos

1,748,462 photos uploaded!

Nearby

Snow Depth

Station Depth Elevation
No new snow has been reported.

Earthquake Activity

City Distance Mag. Time & Date
No recent earthquake activity has been reported nearby.
Minimum magnitude displayed is 2.5.

Coastal Water Temperatures

Place Temperature
No Stations Reporting

Nearby Weather Stations